Time;durP1;ratioP1;P1;durP2;ratioP2;P2;SDS_P1;SDS_P2;PMS_P1;PMS_P2;Temp;Humidity;BMP_temperature;BMP_pressure;BME280_temperature;BME280_humidity;BME280_pressure;Samples;Min_cycle;Max_cycle;Signal;HPM_P1;HPM_P2
2024/04/23 00:01:33;;;;;;;;;;;;;;;16.92;58.59;99715.53;5451864;26;20260;-40
2024/04/23 00:03:58;;;;;;;;;;;;;;;16.92;58.73;99704.78;5451311;26;19924;-40
2024/04/23 00:06:24;;;;;;;;;;;;;;;16.98;58.17;99693.88;5451448;26;19929;-40
2024/04/23 00:08:49;;;;;;;;;;;;;;;16.78;58.78;99697.00;5451948;26;19931;-40
2024/04/23 00:11:14;;;;;;;;;;;;;;;16.89;58.62;99695.34;5451398;26;20310;-40
2024/04/23 00:13:39;;;;;;;;;;;;;;;16.96;59.07;99695.16;5451578;26;19932;-40
2024/04/23 00:16:05;;;;;;;;;;;;;;;17.05;58.72;99690.19;5451855;26;19936;-41
2024/04/23 00:18:30;;;;;;;;;;;;;;;17.05;58.08;99688.31;5451725;26;19932;-40
2024/04/23 00:20:56;;;;;;;;;;;;;;;17.05;58.36;99693.66;5451515;26;19928;-41
2024/04/23 00:23:21;;;;;;;;;;;;;;;17.17;58.23;99691.72;5451478;26;19931;-41
2024/04/23 00:25:46;;;;;;;;;;;;;;;17.06;58.49;99686.41;5451563;26;19932;-40
2024/04/23 00:28:12;;;;;;;;;;;;;;;17.06;58.57;99681.88;5451378;26;19924;-40
2024/04/23 00:30:37;;;;;;;;;;;;;;;17.10;58.22;99677.63;5451589;26;19924;-41
2024/04/23 00:33:06;;;;;;;;;;;;;;;17.07;58.16;99663.88;5449591;26;19931;-40
2024/04/23 00:35:31;;;;;;;;;;;;;;;16.87;59.07;99653.63;5451718;26;19925;-40
2024/04/23 00:37:56;;;;;;;;;;;;;;;16.78;58.92;99645.97;5451732;26;20362;-41
2024/04/23 00:40:21;;;;;;;;;;;;;;;16.78;59.17;99647.84;5452560;26;19924;-40
2024/04/23 00:42:47;;;;;;;;;;;;;;;16.78;59.67;99651.34;5451667;26;19944;-40
2024/04/23 00:45:13;;;;;;;;;;;;;;;16.95;58.96;99658.59;5451665;26;20007;-41
2024/04/23 00:47:39;;;;;;;;;;;;;;;16.52;60.03;99666.25;5451525;26;20434;-40
2024/04/23 00:50:04;;;;;;;;;;;;;;;16.49;60.70;99668.63;5449660;26;19924;-41
2024/04/23 00:52:30;;;;;;;;;;;;;;;16.49;60.94;99668.63;5451137;26;19924;-39
2024/04/23 00:54:57;;;;;;;;;;;;;;;16.46;60.84;99663.72;5452286;26;19931;-41
2024/04/23 00:57:22;;;;;;;;;;;;;;;16.49;60.55;99655.19;5451593;26;19924;-41
2024/04/23 00:59:47;;;;;;;;;;;;;;;16.36;60.57;99654.44;5451219;26;19953;-40
2024/04/23 01:02:13;;;;;;;;;;;;;;;16.42;61.24;99658.03;5451130;26;19994;-41
2024/04/23 01:04:38;;;;;;;;;;;;;;;16.68;60.47;99650.34;5451022;26;19924;-41
2024/04/23 01:07:03;;;;;;;;;;;;;;;16.82;59.88;99657.06;5451123;26;20364;-39
2024/04/23 01:09:29;;;;;;;;;;;;;;;16.94;59.22;99660.44;5451513;26;19989;-41
2024/04/23 01:11:54;;;;;;;;;;;;;;;16.92;59.19;99656.41;5449766;26;19936;-40
2024/04/23 01:14:19;;;;;;;;;;;;;;;16.65;59.67;99648.19;5451628;26;19924;-41
2024/04/23 01:16:46;;;;;;;;;;;;;;;16.68;60.03;99648.50;5452250;26;19932;-41
2024/04/23 01:19:17;;;;;;;;;;;;;;;16.46;60.25;99653.00;5451895;26;19924;-37
2024/04/23 01:21:59;;;;;;;;;;;;;;;16.18;61.99;99646.63;5452287;26;19953;-39
2024/04/23 01:24:27;;;;;;;;;;;;;;;16.44;61.07;99649.75;5453140;26;19924;-41
2024/04/23 01:26:53;;;;;;;;;;;;;;;16.02;62.44;99657.09;5452517;26;19935;-41
2024/04/23 01:29:19;;;;;;;;;;;;;;;15.63;63.89;99666.78;5452101;26;20285;-41
2024/04/23 01:31:44;;;;;;;;;;;;;;;15.45;64.97;99649.00;5452396;26;19931;-41
2024/04/23 01:34:09;;;;;;;;;;;;;;;15.49;64.84;99644.81;5451652;26;20276;-39
2024/04/23 01:36:35;;;;;;;;;;;;;;;15.33;65.56;99640.19;5451891;26;19924;-39
2024/04/23 01:39:01;;;;;;;;;;;;;;;15.20;66.38;99636.72;5451929;26;19932;-40
2024/04/23 01:41:26;;;;;;;;;;;;;;;15.76;64.79;99638.91;5451797;26;19932;-40
2024/04/23 01:43:52;;;;;;;;;;;;;;;15.43;65.90;99643.88;5451924;26;19932;-39
2024/04/23 01:46:17;;;;;;;;;;;;;;;15.36;66.45;99645.06;5452077;26;20014;-39
2024/04/23 01:48:43;;;;;;;;;;;;;;;15.09;67.07;99637.53;5451419;26;19924;-40
2024/04/23 01:51:08;;;;;;;;;;;;;;;15.11;67.32;99632.75;5452050;26;19961;-39
2024/04/23 01:53:33;;;;;;;;;;;;;;;15.28;66.81;99638.22;5451852;26;19924;-39
2024/04/23 01:55:58;;;;;;;;;;;;;;;15.05;67.68;99620.31;5451729;26;19952;-39
2024/04/23 01:58:24;;;;;;;;;;;;;;;15.12;67.71;99621.00;5451605;26;19924;-40
2024/04/23 02:00:52;;;;;;;;;;;;;;;15.13;67.95;99625.31;5451506;26;20361;-39
2024/04/23 02:03:19;;;;;;;;;;;;;;;15.07;68.17;99633.47;5451242;26;19924;-40
2024/04/23 02:05:44;;;;;;;;;;;;;;;15.52;66.45;99646.22;5451629;26;19924;-40
2024/04/23 02:08:09;;;;;;;;;;;;;;;15.68;66.28;99655.34;5451754;26;19924;-40
2024/04/23 02:10:41;;;;;;;;;;;;;;;15.57;66.09;99663.22;5450814;26;19930;-39
2024/04/23 02:13:07;;;;;;;;;;;;;;;15.16;67.49;99678.44;5451619;26;19956;-40
2024/04/23 02:15:32;;;;;;;;;;;;;;;15.58;66.65;99690.84;5451245;26;19993;-41
2024/04/23 02:17:58;;;;;;;;;;;;;;;15.64;65.78;99688.00;5451142;26;19936;-40
2024/04/23 02:20:23;;;;;;;;;;;;;;;15.77;65.86;99672.75;5451187;26;19955;-41
2024/04/23 02:22:48;;;;;;;;;;;;;;;15.39;66.98;99656.13;5450563;26;20317;-41
2024/04/23 02:25:13;;;;;;;;;;;;;;;15.04;69.00;99632.91;5451222;26;19936;-40
2024/04/23 02:27:38;;;;;;;;;;;;;;;14.34;72.20;99639.03;5450949;26;19932;-41
2024/04/23 02:30:04;;;;;;;;;;;;;;;14.02;74.16;99633.16;5453848;26;19932;-40
2024/04/23 02:32:29;;;;;;;;;;;;;;;14.38;73.14;99645.56;5454731;26;19924;-41
2024/04/23 02:34:54;;;;;;;;;;;;;;;14.28;73.59;99651.50;5454462;26;20352;-40
2024/04/23 02:37:20;;;;;;;;;;;;;;;13.98;75.13;99650.72;5454150;26;20361;-41
2024/04/23 02:39:45;;;;;;;;;;;;;;;14.17;75.22;99641.56;5454589;26;20362;-40
2024/04/23 02:42:10;;;;;;;;;;;;;;;14.67;72.87;99643.06;5454116;26;20353;-40
2024/04/23 02:44:35;;;;;;;;;;;;;;;14.46;73.15;99642.53;5453560;26;19925;-40
2024/04/23 02:47:00;;;;;;;;;;;;;;;14.40;74.11;99640.78;5454657;26;19931;-40
2024/04/23 02:49:26;;;;;;;;;;;;;;;14.64;73.15;99646.19;5453399;26;19931;-43
2024/04/23 02:51:52;;;;;;;;;;;;;;;14.55;73.65;99620.78;5454283;26;19925;-40
2024/04/23 02:54:17;;;;;;;;;;;;;;;14.28;73.88;99627.41;5453948;26;19931;-41
2024/04/23 02:56:44;;;;;;;;;;;;;;;13.75;77.76;99606.78;5454206;26;19924;-41
2024/04/23 02:59:10;;;;;;;;;;;;;;;14.00;76.19;99628.03;5454294;26;19968;-40
2024/04/23 03:01:35;;;;;;;;;;;;;;;14.25;75.43;99630.53;5454211;26;19932;-40
2024/04/23 03:04:00;;;;;;;;;;;;;;;14.14;76.11;99630.50;5454943;26;19962;-40
2024/04/23 03:06:25;;;;;;;;;;;;;;;14.46;74.96;99641.72;5454481;26;19924;-40
2024/04/23 03:08:50;;;;;;;;;;;;;;;14.70;73.83;99636.41;5454439;26;20341;-27
2024/04/23 03:11:16;;;;;;;;;;;;;;;14.81;73.24;99632.91;5454225;26;19932;-26
2024/04/23 03:13:41;;;;;;;;;;;;;;;14.55;74.03;99639.53;5453941;26;19924;-26
2024/04/23 03:16:06;;;;;;;;;;;;;;;14.54;74.76;99643.25;5453892;26;19932;-27
2024/04/23 03:18:32;;;;;;;;;;;;;;;14.50;74.55;99636.72;5453774;26;19925;-26
2024/04/23 03:20:57;;;;;;;;;;;;;;;14.33;75.54;99644.63;5454547;26;20043;-27
2024/04/23 03:23:22;;;;;;;;;;;;;;;13.81;78.15;99637.16;5453687;26;19996;-26
2024/04/23 03:25:47;;;;;;;;;;;;;;;13.98;78.36;99622.09;5454105;26;19932;-26
2024/04/23 03:28:13;;;;;;;;;;;;;;;13.79;79.06;99639.25;5453725;26;19932;-26
2024/04/23 03:30:38;;;;;;;;;;;;;;;13.74;79.96;99631.09;5454402;26;19924;-26
2024/04/23 03:33:03;;;;;;;;;;;;;;;14.14;77.65;99638.53;5454202;26;19925;-26
2024/04/23 03:35:28;;;;;;;;;;;;;;;14.17;77.13;99630.88;5453960;26;19930;-26
2024/04/23 03:37:53;;;;;;;;;;;;;;;14.15;78.04;99603.53;5450698;26;19924;-26
2024/04/23 03:40:19;;;;;;;;;;;;;;;13.94;79.05;99610.22;5450074;26;19925;-26
2024/04/23 03:42:44;;;;;;;;;;;;;;;14.10;78.69;99594.56;5450543;26;20014;-26
2024/04/23 03:45:09;;;;;;;;;;;;;;;13.62;80.34;99588.25;5450691;26;19935;-26
2024/04/23 03:47:34;;;;;;;;;;;;;;;13.67;81.45;99597.22;5450821;26;19925;-26
2024/04/23 03:50:00;;;;;;;;;;;;;;;13.91;80.73;99605.31;5450517;26;19924;-26
2024/04/23 03:52:26;;;;;;;;;;;;;;;14.12;80.10;99630.72;5452270;26;19924;-26
2024/04/23 03:54:51;;;;;;;;;;;;;;;14.38;78.36;99637.53;5453369;26;19932;-27
2024/04/23 03:57:17;;;;;;;;;;;;;;;14.85;76.71;99656.34;5453665;26;19931;-27
2024/04/23 03:59:42;;;;;;;;;;;;;;;14.91;75.95;99665.31;5453299;26;19924;-26
2024/04/23 04:07:35;;;;;;;;;;;;;;;14.41;77.79;99647.78;5454846;26;19932;-26
2024/04/23 04:10:00;;;;;;;;;;;;;;;14.57;78.31;99667.72;5454346;26;19924;-27
2024/04/23 04:12:26;;;;;;;;;;;;;;;14.63;77.57;99677.50;5454586;26;20256;-28
2024/04/23 04:14:51;;;;;;;;;;;;;;;14.14;79.33;99674.13;5454101;26;19931;-27
2024/04/23 04:17:16;;;;;;;;;;;;;;;14.39;79.39;99673.97;5455287;26;20349;-27
2024/04/23 04:19:41;;;;;;;;;;;;;;;14.13;79.89;99669.84;5454115;26;19931;-26
2024/04/23 04:22:07;;;;;;;;;;;;;;;14.53;84.55;99681.81;5454494;26;19924;-28
2024/04/23 04:24:32;;;;;;;;;;;;;;;14.43;79.12;99683.19;5454639;26;19952;-28
2024/04/23 04:26:57;;;;;;;;;;;;;;;14.46;80.06;99689.91;5454142;26;19931;-27
2024/04/23 04:29:22;;;;;;;;;;;;;;;14.22;80.76;99681.84;5454187;26;19924;-27
2024/04/23 04:31:48;;;;;;;;;;;;;;;16.06;81.87;99694.19;5454159;26;19924;-27
2024/04/23 04:34:14;;;;;;;;;;;;;;;15.74;75.38;99698.16;5454254;26;19931;-27
2024/04/23 04:36:39;;;;;;;;;;;;;;;15.57;76.07;99700.75;5454020;26;19924;-27
2024/04/23 04:39:04;;;;;;;;;;;;;;;15.74;74.96;99694.66;5454559;26;19924;-27
2024/04/23 04:41:29;;;;;;;;;;;;;;;15.30;76.45;99700.44;5453419;26;20039;-27
2024/04/23 04:43:55;;;;;;;;;;;;;;;15.10;77.71;99698.16;5453345;26;19925;-26
2024/04/23 04:46:20;;;;;;;;;;;;;;;15.14;78.00;99693.13;5453369;26;20353;-27
2024/04/23 04:48:45;;;;;;;;;;;;;;;15.48;77.01;99693.28;5453741;26;20328;-27
2024/04/23 04:51:10;;;;;;;;;;;;;;;15.24;77.78;99688.00;5453481;26;19931;-27
2024/04/23 04:53:36;;;;;;;;;;;;;;;14.79;79.98;99691.25;5453623;26;19997;-27
2024/04/23 04:56:01;;;;;;;;;;;;;;;14.81;79.45;99681.97;5454274;26;19924;-29
2024/04/23 04:58:26;;;;;;;;;;;;;;;14.11;84.08;99676.44;5453552;26;19948;-27
2024/04/23 05:00:51;;;;;;;;;;;;;;;14.20;84.52;99683.94;5454623;26;19931;-27
2024/04/23 05:03:17;;;;;;;;;;;;;;;14.06;85.18;99702.03;5453642;26;19939;-26
2024/04/23 05:05:42;;;;;;;;;;;;;;;14.13;84.93;99693.91;5453185;26;20269;-27
2024/04/23 05:08:07;;;;;;;;;;;;;;;14.21;85.87;99690.91;5451205;26;20029;-28
2024/04/23 05:10:32;;;;;;;;;;;;;;;14.41;85.04;99693.31;5450602;26;19932;-27
2024/04/23 05:12:58;;;;;;;;;;;;;;;14.38;85.89;99685.72;5450346;26;19936;-28
2024/04/23 05:15:23;;;;;;;;;;;;;;;14.08;86.89;99688.44;5450059;26;19960;-27
2024/04/23 05:17:48;;;;;;;;;;;;;;;14.38;86.34;99688.41;5449886;26;20576;-26
2024/04/23 05:20:13;;;;;;;;;;;;;;;14.23;87.08;99688.00;5450389;26;19934;-28
2024/04/23 05:22:39;;;;;;;;;;;;;;;14.63;85.57;99680.19;5451030;26;19925;-27
2024/04/23 05:25:04;;;;;;;;;;;;;;;14.32;86.62;99678.63;5452307;26;19997;-28
2024/04/23 05:27:29;;;;;;;;;;;;;;;14.12;88.10;99680.75;5452528;26;20260;-27
2024/04/23 05:29:55;;;;;;;;;;;;;;;14.06;88.82;99664.56;5452450;26;19935;-26
2024/04/23 05:35:06;;;;;;;;;;;;;;;14.30;86.89;99675.34;5452242;26;20155;-26
2024/04/23 05:37:31;;;;;;;;;;;;;;;14.58;86.87;99672.06;5452580;26;20299;-26
2024/04/23 05:39:56;;;;;;;;;;;;;;;14.15;88.72;99669.63;5452927;26;19953;-28
2024/04/23 05:42:21;;;;;;;;;;;;;;;13.93;89.11;99653.25;5453085;26;19925;-29
2024/04/23 05:44:47;;;;;;;;;;;;;;;13.88;89.81;99673.47;5452786;26;19932;-27
2024/04/23 05:47:12;;;;;;;;;;;;;;;13.96;90.45;99675.00;5452056;26;19993;-27
2024/04/23 05:49:55;;;;;;;;;;;;;;;13.87;90.27;99671.81;5451741;26;19925;-26
2024/04/23 05:52:39;;;;;;;;;;;;;;;14.23;89.07;99677.31;5449791;26;19960;-27
2024/04/23 05:55:23;;;;;;;;;;;;;;;13.86;90.08;99672.09;5451748;26;19948;-25
2024/04/23 05:57:48;;;;;;;;;;;;;;;13.93;90.96;99674.66;5452526;26;20396;-26
2024/04/23 06:00:14;;;;;;;;;;;;;;;13.96;89.92;99675.00;5452804;26;19933;-27
2024/04/23 06:02:39;;;;;;;;;;;;;;;14.14;89.50;99659.94;5452717;26;19992;-27
2024/04/23 06:05:04;;;;;;;;;;;;;;;14.23;89.44;99650.53;5458438;26;19935;-29
2024/04/23 06:07:29;;;;;;;;;;;;;;;14.65;87.34;99651.31;5460529;26;19925;-27
2024/04/23 06:09:55;;;;;;;;;;;;;;;14.48;87.80;99632.41;5460338;26;19924;-27
2024/04/23 06:12:20;;;;;;;;;;;;;;;14.07;89.62;99635.97;5460507;26;19936;-27
2024/04/23 06:14:45;;;;;;;;;;;;;;;13.83;91.71;99633.22;5458926;26;19933;-29
2024/04/23 06:17:20;;;;;;;;;;;;;;;13.52;92.96;99617.38;5460230;26;19996;-28
2024/04/23 06:19:50;;;;;;;;;;;;;;;13.67;92.89;99593.75;5460254;26;19924;-27
2024/04/23 06:22:21;;;;;;;;;;;;;;;13.67;93.70;99610.59;5460107;26;19924;-27
2024/04/23 06:24:47;;;;;;;;;;;;;;;13.77;92.62;99606.56;5460083;26;19924;-29
2024/04/23 06:27:16;;;;;;;;;;;;;;;14.11;92.18;99602.34;5457754;26;19924;-27
2024/04/23 06:29:42;;;;;;;;;;;;;;;13.46;93.53;99603.06;5460248;26;19924;-29
2024/04/23 06:32:07;;;;;;;;;;;;;;;13.25;97.06;99597.13;5459676;26;19936;-27
2024/04/23 06:34:32;;;;;;;;;;;;;;;13.48;96.42;99591.13;5460041;26;20264;-29
2024/04/23 06:36:57;;;;;;;;;;;;;;;13.50;94.36;99590.91;5459568;26;19928;-27
2024/04/23 06:39:22;;;;;;;;;;;;;;;13.36;95.83;99595.56;5459542;26;19931;-27
2024/04/23 06:41:48;;;;;;;;;;;;;;;13.79;95.14;99605.28;5458126;26;19993;-28
2024/04/23 06:44:13;;;;;;;;;;;;;;;14.23;91.52;99640.66;5458645;26;19932;-29
2024/04/23 06:46:38;;;;;;;;;;;;;;;14.38;90.36;99644.75;5458057;26;20001;-29
2024/04/23 06:49:03;;;;;;;;;;;;;;;14.46;89.60;99649.75;5458526;26;19966;-28
2024/04/23 06:51:28;;;;;;;;;;;;;;;13.76;92.82;99656.53;5458965;26;20367;-27
2024/04/23 06:53:54;;;;;;;;;;;;;;;14.07;93.24;99674.25;5458940;26;19925;-27
2024/04/23 06:56:19;;;;;;;;;;;;;;;14.67;89.58;99675.19;5459574;26;19932;-27
2024/04/23 06:58:46;;;;;;;;;;;;;;;14.52;87.69;99697.03;5459491;26;19932;-28
2024/04/23 07:01:12;;;;;;;;;;;;;;;14.11;90.71;99705.88;5457469;26;19932;-27
2024/04/23 07:03:39;;;;;;;;;;;;;;;14.08;91.69;99710.63;5459965;26;19924;-26
2024/04/23 07:06:04;;;;;;;;;;;;;;;13.67;93.98;99704.19;5459175;26;19928;-27
2024/04/23 07:08:29;;;;;;;;;;;;;;;14.03;93.62;99693.63;5459848;26;20265;-29
2024/04/23 07:10:55;;;;;;;;;;;;;;;13.78;95.93;99696.44;5459223;26;20000;-27
2024/04/23 07:13:20;;;;;;;;;;;;;;;13.89;93.94;99693.81;5459604;26;19932;-26
2024/04/23 07:15:45;;;;;;;;;;;;;;;13.78;94.69;99664.34;5455747;26;19940;-27
2024/04/23 07:18:12;;;;;;;;;;;;;;;14.33;92.81;99647.28;5454930;26;19931;-27
2024/04/23 07:20:38;;;;;;;;;;;;;;;14.37;91.55;99640.44;5455393;26;19935;-27
2024/04/23 07:23:03;;;;;;;;;;;;;;;14.69;90.19;99649.00;5455008;26;20295;-27
2024/04/23 07:25:29;;;;;;;;;;;;;;;14.49;92.20;99649.31;5455009;26;20349;-26
2024/04/23 07:27:54;;;;;;;;;;;;;;;14.38;92.25;99648.25;5454475;26;19924;-28
2024/04/23 07:30:23;;;;;;;;;;;;;;;14.75;90.68;99656.09;5454580;26;19932;-26
2024/04/23 07:32:48;;;;;;;;;;;;;;;14.56;91.20;99660.69;5455024;26;19957;-27
2024/04/23 07:35:13;;;;;;;;;;;;;;;14.73;89.88;99662.72;5455140;26;19924;-26
2024/04/23 07:37:38;;;;;;;;;;;;;;;14.68;89.46;99666.13;5455222;26;20419;-27
2024/04/23 07:40:04;;;;;;;;;;;;;;;14.03;92.62;99659.69;5455103;26;19932;-28
2024/04/23 07:42:29;;;;;;;;;;;;;;;14.05;91.99;99649.56;5455048;26;19930;-29
2024/04/23 07:44:54;;;;;;;;;;;;;;;14.03;92.56;99643.63;5455725;26;19924;-28
2024/04/23 07:47:20;;;;;;;;;;;;;;;14.06;91.66;99647.72;5454818;26;20356;-28
2024/04/23 07:49:45;;;;;;;;;;;;;;;14.06;93.89;99661.09;5454798;26;20355;-30
2024/04/23 07:52:10;;;;;;;;;;;;;;;13.86;92.80;99653.34;5455148;26;19936;-31
2024/04/23 07:54:35;;;;;;;;;;;;;;;13.96;93.63;99637.56;5455052;26;20389;-28
2024/04/23 07:57:00;;;;;;;;;;;;;;;14.03;94.01;99638.28;5454720;26;20341;-27
2024/04/23 07:59:26;;;;;;;;;;;;;;;14.35;91.85;99642.53;5454888;26;20355;-27
2024/04/23 08:01:51;;;;;;;;;;;;;;;14.61;89.67;99647.47;5455065;26;20260;-30
2024/04/23 08:04:16;;;;;;;;;;;;;;;14.81;87.15;99628.38;5454336;26;19997;-29
2024/04/23 08:06:41;;;;;;;;;;;;;;;14.94;85.67;99621.16;5455099;26;19989;-29
2024/04/23 08:09:06;;;;;;;;;;;;;;;14.83;87.55;99630.81;5454685;26;19932;-30
2024/04/23 08:11:32;;;;;;;;;;;;;;;14.99;86.38;99635.47;5454798;26;19965;-31
2024/04/23 08:13:57;;;;;;;;;;;;;;;15.09;86.20;99629.50;5454384;26;19933;-27
2024/04/23 08:16:22;;;;;;;;;;;;;;;15.33;84.96;99645.56;5454623;26;19952;-28
2024/04/23 08:18:48;;;;;;;;;;;;;;;15.27;84.46;99646.47;5454757;26;19936;-30
2024/04/23 08:21:13;;;;;;;;;;;;;;;14.76;85.90;99638.97;5453818;26;19931;-31
2024/04/23 08:23:38;;;;;;;;;;;;;;;14.45;87.95;99634.75;5454191;26;19940;-30
2024/04/23 08:26:09;;;;;;;;;;;;;;;14.26;88.73;99618.78;5454241;26;20299;-29
2024/04/23 08:28:34;;;;;;;;;;;;;;;14.22;90.94;99631.00;5449926;26;19924;-30
2024/04/23 08:31:00;;;;;;;;;;;;;;;14.44;88.94;99609.81;5453602;26;19973;-28
2024/04/23 08:33:25;;;;;;;;;;;;;;;14.16;90.65;99596.31;5453485;26;19993;-28
2024/04/23 08:35:50;;;;;;;;;;;;;;;14.42;90.18;99617.28;5453749;26;19931;-32
2024/04/23 08:38:15;;;;;;;;;;;;;;;14.75;88.56;99626.63;5454266;26;19939;-30
2024/04/23 08:40:41;;;;;;;;;;;;;;;14.52;89.13;99632.75;5453546;26;19940;-29
2024/04/23 08:43:10;;;;;;;;;;;;;;;14.42;90.55;99636.03;5453391;26;20209;-27
2024/04/23 08:45:36;;;;;;;;;;;;;;;14.39;92.60;99623.13;5453438;26;19925;-28
2024/04/23 08:48:03;;;;;;;;;;;;;;;14.85;89.21;99616.16;5453372;26;19925;-28
2024/04/23 08:50:29;;;;;;;;;;;;;;;14.92;88.46;99618.69;5452796;26;19931;-29
2024/04/23 08:52:54;;;;;;;;;;;;;;;14.93;88.43;99614.16;5453748;26;19924;-30
2024/04/23 08:55:20;;;;;;;;;;;;;;;14.67;89.77;99621.63;5453958;26;19948;-27
2024/04/23 08:57:45;;;;;;;;;;;;;;;14.55;89.84;99615.44;5453954;26;19939;-29
2024/04/23 09:00:11;;;;;;;;;;;;;;;14.76;89.01;99617.56;5454239;26;19925;-30
2024/04/23 09:02:37;;;;;;;;;;;;;;;14.94;88.51;99613.09;5453830;26;19948;-29
2024/04/23 09:05:02;;;;;;;;;;;;;;;15.24;86.27;99608.38;5454432;26;20364;-28
2024/04/23 09:07:28;;;;;;;;;;;;;;;15.06;87.40;99600.53;5453710;26;19929;-32
2024/04/23 09:09:53;;;;;;;;;;;;;;;13.91;94.08;99575.09;5453971;26;20386;-32
2024/04/23 09:12:19;;;;;;;;;;;;;;;13.51;98.26;99579.16;5454206;26;20285;-28
2024/04/23 09:14:48;;;;;;;;;;;;;;;13.24;100.00;99570.63;5453917;26;19931;-30
2024/04/23 09:17:13;;;;;;;;;;;;;;;13.10;100.00;99572.66;5453665;26;19949;-29
2024/04/23 09:19:39;;;;;;;;;;;;;;;13.16;100.00;99558.41;5453740;26;20368;-28
2024/04/23 09:22:04;;;;;;;;;;;;;;;13.15;100.00;99540.72;5453734;26;19924;-30
2024/04/23 09:24:30;;;;;;;;;;;;;;;13.26;100.00;99537.28;5453492;26;19932;-30
2024/04/23 09:26:56;;;;;;;;;;;;;;;13.35;99.64;99527.16;5453677;26;20257;-30
2024/04/23 09:29:21;;;;;;;;;;;;;;;13.34;100.00;99516.69;5453994;26;19989;-30
2024/04/23 09:31:46;;;;;;;;;;;;;;;13.20;100.00;99505.34;5453709;26;19931;-30
2024/04/23 09:34:22;;;;;;;;;;;;;;;12.85;100.00;99498.78;5452174;26;19925;-30
2024/04/23 09:36:48;;;;;;;;;;;;;;;12.99;100.00;99503.97;5452644;26;19924;-30
2024/04/23 09:39:16;;;;;;;;;;;;;;;12.77;100.00;99515.09;5451172;26;19924;-30
2024/04/23 09:41:42;;;;;;;;;;;;;;;12.74;100.00;99523.56;5453288;26;19952;-28
2024/04/23 09:44:10;;;;;;;;;;;;;;;12.56;100.00;99508.34;5453620;26;19935;-32
2024/04/23 09:46:35;;;;;;;;;;;;;;;12.24;100.00;99481.81;5453251;26;20322;-29
2024/04/23 09:49:06;;;;;;;;;;;;;;;12.55;100.00;99487.25;5453379;26;19938;-32
2024/04/23 09:51:32;;;;;;;;;;;;;;;12.79;100.00;99490.84;5453256;26;19934;-29
2024/04/23 09:54:01;;;;;;;;;;;;;;;12.55;100.00;99495.25;5453174;26;20363;-30
2024/04/23 09:56:26;;;;;;;;;;;;;;;12.71;100.00;99491.97;5453372;26;19933;-29
2024/04/23 09:58:52;;;;;;;;;;;;;;;12.76;100.00;99472.63;5453284;26;19970;-28
2024/04/23 10:01:18;;;;;;;;;;;;;;;12.62;100.00;99470.09;5453290;26;19924;-30
2024/04/23 10:03:44;;;;;;;;;;;;;;;12.58;100.00;99460.88;5453281;26;19925;-29
2024/04/23 10:06:10;;;;;;;;;;;;;;;13.09;100.00;99459.63;5451374;26;19932;-28
2024/04/23 10:08:38;;;;;;;;;;;;;;;13.20;100.00;99468.72;5453329;26;19932;-30
2024/04/23 10:11:05;;;;;;;;;;;;;;;12.99;100.00;99474.59;5453333;26;20349;-28
2024/04/23 10:13:37;;;;;;;;;;;;;;;13.00;100.00;99484.22;5453264;26;19931;-29
2024/04/23 10:16:09;;;;;;;;;;;;;;;12.56;100.00;99491.53;5453394;26;20364;-31
2024/04/23 10:18:40;;;;;;;;;;;;;;;12.85;100.00;99496.13;5452861;26;19924;-30
2024/04/23 10:21:08;;;;;;;;;;;;;;;13.27;100.00;99485.50;5452442;26;20305;-27
2024/04/23 10:23:35;;;;;;;;;;;;;;;12.97;100.00;99487.34;5452883;26;19937;-28
2024/04/23 10:26:01;;;;;;;;;;;;;;;13.08;100.00;99467.88;5452427;26;20298;-28
2024/04/23 10:28:27;;;;;;;;;;;;;;;12.97;100.00;99458.78;5452776;26;20357;-31
2024/04/23 10:30:52;;;;;;;;;;;;;;;13.20;100.00;99451.91;5452959;26;19931;-28
2024/04/23 10:33:17;;;;;;;;;;;;;;;12.88;100.00;99436.09;5453171;26;20292;-29
2024/04/23 10:35:43;;;;;;;;;;;;;;;13.01;100.00;99406.53;5452525;26;19932;-30
2024/04/23 10:38:10;;;;;;;;;;;;;;;12.70;100.00;99397.72;5452734;26;19925;-28
2024/04/23 10:40:36;;;;;;;;;;;;;;;13.14;100.00;99392.16;5452219;26;19924;-28
2024/04/23 10:43:01;;;;;;;;;;;;;;;13.24;100.00;99399.63;5452677;26;20356;-31
2024/04/23 10:45:26;;;;;;;;;;;;;;;13.10;100.00;99402.50;5452491;26;20246;-29
2024/04/23 10:47:52;;;;;;;;;;;;;;;13.15;100.00;99390.31;5451760;26;20421;-28
2024/04/23 10:50:25;;;;;;;;;;;;;;;13.86;100.00;99385.88;5453246;26;19925;-27
2024/04/23 10:52:53;;;;;;;;;;;;;;;13.57;100.00;99399.09;5455790;26;20060;-29
2024/04/23 10:55:18;;;;;;;;;;;;;;;13.89;100.00;99401.44;5455572;26;19930;-28
2024/04/23 10:57:43;;;;;;;;;;;;;;;13.57;100.00;99399.09;5455602;26;19925;-29
2024/04/23 11:00:10;;;;;;;;;;;;;;;13.41;100.00;99378.44;5456079;26;19925;-28
2024/04/23 11:02:36;;;;;;;;;;;;;;;13.43;100.00;99379.00;5455610;26;19925;-30
2024/04/23 11:05:01;;;;;;;;;;;;;;;13.74;100.00;99380.53;5455503;26;19993;-31
2024/04/23 11:07:27;;;;;;;;;;;;;;;13.62;100.00;99377.84;5455325;26;19924;-30
2024/04/23 11:10:00;;;;;;;;;;;;;;;13.69;100.00;99378.56;5455586;26;19931;-28
2024/04/23 11:12:25;;;;;;;;;;;;;;;13.77;100.00;99381.94;5455352;26;20000;-27
2024/04/23 11:14:51;;;;;;;;;;;;;;;13.72;100.00;99392.50;5455963;26;19932;-31
2024/04/23 11:17:17;;;;;;;;;;;;;;;13.73;100.00;99392.28;5455576;26;20359;-29
2024/04/23 11:19:50;;;;;;;;;;;;;;;14.33;100.00;99380.44;5455422;26;19932;-29
2024/04/23 11:22:16;;;;;;;;;;;;;;;14.51;99.52;99378.63;5455519;26;19932;-28
2024/04/23 11:24:52;;;;;;;;;;;;;;;14.50;99.32;99387.75;5455393;26;19929;-31
2024/04/23 11:27:17;;;;;;;;;;;;;;;14.50;98.62;99390.41;5455328;26;19924;-29
2024/04/23 11:29:43;;;;;;;;;;;;;;;14.69;97.84;99377.69;5455083;26;20260;-30
2024/04/23 11:32:09;;;;;;;;;;;;;;;14.73;98.14;99374.28;5455661;26;19924;-30
2024/04/23 11:34:34;;;;;;;;;;;;;;;14.81;97.75;99376.59;5453509;26;19930;-30
2024/04/23 11:36:59;;;;;;;;;;;;;;;14.78;97.95;99377.06;5454972;26;19925;-29
2024/04/23 11:39:25;;;;;;;;;;;;;;;14.31;100.00;99352.28;5455593;26;19939;-29
2024/04/23 11:41:51;;;;;;;;;;;;;;;14.43;99.84;99385.19;5455111;26;19925;-27
2024/04/23 11:44:17;;;;;;;;;;;;;;;14.38;100.00;99361.81;5455426;26;20362;-28
2024/04/23 11:46:43;;;;;;;;;;;;;;;13.96;100.00;99343.31;5455199;26;19932;-28
2024/04/23 11:49:08;;;;;;;;;;;;;;;13.98;100.00;99340.41;5455006;26;19924;-27
2024/04/23 11:51:33;;;;;;;;;;;;;;;14.00;100.00;99332.94;5454924;26;19924;-26
2024/04/23 11:54:00;;;;;;;;;;;;;;;13.77;100.00;99329.25;5454299;26;19989;-28
2024/04/23 11:56:26;;;;;;;;;;;;;;;13.64;100.00;99327.63;5455285;26;20337;-27
2024/04/23 11:58:51;;;;;;;;;;;;;;;14.15;100.00;99329.78;5454856;26;19925;-28
2024/04/23 12:01:16;;;;;;;;;;;;;;;13.91;100.00;99340.50;5454535;26;19924;-28
2024/04/23 12:03:42;;;;;;;;;;;;;;;14.31;100.00;99350.41;5455241;26;19924;-27
2024/04/23 12:06:08;;;;;;;;;;;;;;;14.66;99.08;99368.28;5454720;26;19967;-29
2024/04/23 12:08:36;;;;;;;;;;;;;;;14.30;100.00;99364.88;5454480;26;19936;-28
2024/04/23 12:11:02;;;;;;;;;;;;;;;14.81;99.38;99352.47;5454694;26;20015;-28
2024/04/23 12:13:27;;;;;;;;;;;;;;;15.02;97.53;99353.66;5455192;26;19931;-28
2024/04/23 12:15:53;;;;;;;;;;;;;;;15.02;96.99;99353.66;5455001;26;19924;-27
2024/04/23 12:18:18;;;;;;;;;;;;;;;15.13;95.32;99351.13;5454787;26;20280;-28
2024/04/23 12:20:44;;;;;;;;;;;;;;;14.99;96.42;99354.13;5454141;26;19924;-29
2024/04/23 12:23:10;;;;;;;;;;;;;;;15.37;95.44;99360.66;5453990;26;19924;-28
2024/04/23 12:25:35;;;;;;;;;;;;;;;15.98;92.87;99366.13;5454039;26;19928;-27
2024/04/23 12:28:01;;;;;;;;;;;;;;;16.29;90.35;99371.88;5454525;26;19926;-28
2024/04/23 12:30:26;;;;;;;;;;;;;;;16.55;88.57;99359.56;5455189;26;20341;-30
2024/04/23 12:32:53;;;;;;;;;;;;;;;16.18;90.44;99330.69;5454617;26;19932;-28
2024/04/23 12:35:20;;;;;;;;;;;;;;;16.57;88.82;99327.06;5453956;26;19932;-28
2024/04/23 12:37:45;;;;;;;;;;;;;;;16.58;87.71;99326.00;5454162;26;20256;-27
2024/04/23 12:40:10;;;;;;;;;;;;;;;16.79;86.92;99327.84;5452347;26;19925;-27
2024/04/23 12:42:38;;;;;;;;;;;;;;;16.93;84.92;99327.47;5454145;26;19953;-27
2024/04/23 12:45:04;;;;;;;;;;;;;;;16.99;84.80;99324.53;5453907;26;19931;-28
2024/04/23 12:47:29;;;;;;;;;;;;;;;17.22;84.66;99303.75;5453746;26;19924;-28